createdAt,value
2023-03-16T00:00:13.825Z,15.89
2023-03-16T00:02:43.646Z,15.57
2023-03-16T00:05:14.626Z,15.11
2023-03-16T00:07:43.595Z,15.83
2023-03-16T00:10:13.827Z,15.37
2023-03-16T00:12:43.645Z,16.06
2023-03-16T00:15:12.473Z,16.88
2023-03-16T00:17:40.387Z,17.46
2023-03-16T00:20:12.530Z,16.46
2023-03-16T00:22:41.899Z,16.09
2023-03-16T00:25:11.500Z,17.48
2023-03-16T00:27:39.737Z,18.26
2023-03-16T00:30:09.117Z,18.71
2023-03-16T00:32:38.668Z,17.72
2023-03-16T00:35:09.732Z,17.14
2023-03-16T00:37:39.533Z,16.72
2023-03-16T00:40:09.316Z,17.71
2023-03-16T00:42:37.174Z,18.42
2023-03-16T00:45:06.028Z,18.24
2023-03-16T00:47:35.916Z,18.49
2023-03-16T00:50:04.596Z,17.91
2023-03-16T00:52:35.314Z,17.83
2023-03-16T00:55:04.849Z,17.68
2023-03-16T00:57:32.767Z,18.24
2023-03-16T01:00:01.678Z,18.18
2023-03-16T01:02:29.629Z,18.56
2023-03-16T01:04:57.479Z,19.55
2023-03-16T01:07:25.334Z,20.23
2023-03-16T01:09:54.486Z,20.43
2023-03-16T01:12:22.464Z,20.98
2023-03-16T01:14:50.479Z,20.86
2023-03-16T01:17:22.446Z,20.93
2023-03-16T01:19:51.449Z,20.95
2023-03-16T01:22:19.870Z,20.81
2023-03-16T01:24:48.011Z,20.35
2023-03-16T01:27:17.408Z,20.27
2023-03-16T01:29:45.340Z,19.63
2023-03-16T01:32:13.611Z,19.61
2023-03-16T01:34:41.523Z,19.77
2023-03-16T01:37:09.471Z,19.56
2023-03-16T01:39:37.449Z,19.97
2023-03-16T01:42:05.520Z,19.53
2023-03-16T01:44:54.426Z,19.58
2023-03-16T01:47:22.848Z,18.41
2023-03-16T01:49:55.453Z,18.02
2023-03-16T01:52:27.878Z,17.94
2023-03-16T01:55:02.102Z,18.13
2023-03-16T01:57:37.035Z,18.26
2023-03-16T02:00:10.759Z,18.09
2023-03-16T02:02:43.593Z,17.97
2023-03-16T02:05:16.679Z,17.97
2023-03-16T02:07:49.313Z,17.59
2023-03-16T02:10:21.391Z,17.09
2023-03-16T02:12:49.273Z,17.57
2023-03-16T02:15:19.068Z,18.43
2023-03-16T02:17:49.570Z,18.68
2023-03-16T02:20:34.281Z,18.54
2023-03-16T02:23:04.956Z,19.24
2023-03-16T02:25:45.940Z,19.12
2023-03-16T02:28:23.204Z,19.68
2023-03-16T02:30:53.327Z,19.59
2023-03-16T02:33:23.775Z,19.76
2023-03-16T02:35:51.844Z,19.54
2023-03-16T02:38:19.694Z,20.02
2023-03-16T02:40:59.308Z,21.16
2023-03-16T02:43:33.343Z,20.40
2023-03-16T02:46:05.317Z,20.10
2023-03-16T02:48:42.887Z,19.77
2023-03-16T02:51:12.158Z,20.10
2023-03-16T02:53:40.087Z,20.15
2023-03-16T02:56:08.533Z,20.01
2023-03-16T02:58:36.982Z,19.93
2023-03-16T03:01:06.402Z,20.28
2023-03-16T03:03:35.149Z,19.98
2023-03-16T03:06:03.114Z,20.92
2023-03-16T03:08:32.962Z,20.92
2023-03-16T03:11:00.928Z,20.47
2023-03-16T03:13:29.017Z,20.31
2023-03-16T03:15:56.949Z,20.37
2023-03-16T03:18:26.278Z,20.85
2023-03-16T03:20:54.308Z,22.04
2023-03-16T03:23:22.213Z,21.74
2023-03-16T03:25:50.083Z,21.64
2023-03-16T03:28:17.947Z,21.50
2023-03-16T03:30:45.802Z,21.93
2023-03-16T03:33:13.845Z,21.83
2023-03-16T03:35:43.108Z,22.64
2023-03-16T03:38:11.603Z,22.33
2023-03-16T03:40:39.520Z,22.46
2023-03-16T03:43:07.428Z,23.90
2023-03-16T03:45:35.293Z,24.44
2023-03-16T03:48:03.161Z,24.14
2023-03-16T03:50:31.009Z,24.19
2023-03-16T03:53:00.228Z,26.17
2023-03-16T03:55:28.111Z,23.85
2023-03-16T03:57:56.005Z,23.52
2023-03-16T04:00:24.097Z,24.81
2023-03-16T04:02:52.121Z,25.04
2023-03-16T04:05:20.111Z,26.08
2023-03-16T04:07:48.218Z,26.22
2023-03-16T04:10:17.694Z,25.37
2023-03-16T04:12:45.514Z,25.32
2023-03-16T04:15:13.565Z,25.00
2023-03-16T04:17:41.460Z,25.05
2023-03-16T04:20:15.278Z,25.00
2023-03-16T04:22:43.609Z,25.34
2023-03-16T04:25:12.984Z,26.03
2023-03-16T04:27:42.513Z,25.82
2023-03-16T04:30:13.869Z,25.15
2023-03-16T04:32:42.148Z,25.94
2023-03-16T04:35:11.396Z,26.08
2023-03-16T04:37:39.236Z,25.94
2023-03-16T04:40:15.615Z,26.70
2023-03-16T04:42:46.443Z,26.63
2023-03-16T04:45:15.596Z,26.09
2023-03-16T04:47:43.502Z,26.38
2023-03-16T04:50:13.215Z,26.25
2023-03-16T04:52:41.241Z,25.64
2023-03-16T04:55:09.661Z,26.37
2023-03-16T04:57:37.501Z,25.86
2023-03-16T05:00:11.744Z,26.65
2023-03-16T05:02:39.877Z,26.72
2023-03-16T05:05:08.574Z,26.90
2023-03-16T05:07:41.506Z,27.41
2023-03-16T05:10:10.808Z,28.17
2023-03-16T05:12:38.704Z,27.80
2023-03-16T05:15:09.851Z,28.32
2023-03-16T05:17:38.013Z,29.16
2023-03-16T05:20:08.299Z,27.64
2023-03-16T05:22:36.370Z,27.10
2023-03-16T05:25:05.586Z,27.28
2023-03-16T05:27:34.181Z,26.48
2023-03-16T05:30:02.249Z,26.59
2023-03-16T05:32:31.493Z,26.15
2023-03-16T05:34:59.435Z,26.86
2023-03-16T05:37:27.299Z,26.70
2023-03-16T05:39:57.626Z,26.41
2023-03-16T05:42:26.935Z,26.69
2023-03-16T05:44:54.996Z,26.37
2023-03-16T05:47:22.869Z,26.88
2023-03-16T05:49:52.113Z,26.69
2023-03-16T05:52:19.951Z,26.27
2023-03-16T05:54:47.842Z,26.81
2023-03-16T05:57:15.645Z,25.57
2023-03-16T05:59:43.904Z,26.15
2023-03-16T06:02:12.392Z,26.24
2023-03-16T06:04:40.369Z,26.88
2023-03-16T06:07:09.728Z,26.12
2023-03-16T06:09:37.861Z,26.03
2023-03-16T06:12:05.898Z,26.40
2023-03-16T06:14:33.930Z,27.08
2023-03-16T06:17:01.738Z,27.81
2023-03-16T06:19:29.584Z,27.40
2023-03-16T06:21:57.468Z,27.10
2023-03-16T06:24:26.770Z,26.31
2023-03-16T06:26:54.613Z,27.11
2023-03-16T06:29:22.467Z,27.05
2023-03-16T06:31:51.458Z,26.66
2023-03-16T06:34:19.440Z,27.05
2023-03-16T06:36:47.292Z,26.80
2023-03-16T06:39:15.397Z,27.32
2023-03-16T06:41:44.769Z,27.42
2023-03-16T06:44:12.793Z,27.18
2023-03-16T06:46:40.630Z,26.89
2023-03-16T06:49:08.574Z,25.70
2023-03-16T06:51:36.490Z,24.54
2023-03-16T06:54:04.621Z,23.59
2023-03-16T06:56:32.508Z,22.85
2023-03-16T06:59:02.131Z,21.84
2023-03-16T07:01:30.006Z,22.46
2023-03-16T07:03:58.020Z,21.76
2023-03-16T07:06:25.912Z,21.29
2023-03-16T07:08:53.819Z,21.08
2023-03-16T07:11:21.642Z,19.48
2023-03-16T07:13:49.519Z,20.27
2023-03-16T07:16:18.718Z,19.67
2023-03-16T07:18:46.652Z,19.30
2023-03-16T07:21:14.510Z,18.02
2023-03-16T07:23:42.406Z,18.11
2023-03-16T07:26:12.056Z,18.91
2023-03-16T07:28:40.044Z,17.55
2023-03-16T07:31:09.457Z,17.96
2023-03-16T07:33:38.721Z,16.82
2023-03-16T07:36:07.267Z,17.85
2023-03-16T07:38:35.331Z,17.65
2023-03-16T07:41:03.293Z,16.54
2023-03-16T07:43:31.312Z,17.06
2023-03-16T07:45:59.514Z,16.84
2023-03-16T07:48:27.393Z,16.75
2023-03-16T07:50:56.634Z,16.36
2023-03-16T07:53:24.613Z,16.12
2023-03-16T07:55:52.562Z,16.90
2023-03-16T07:58:20.418Z,16.24
2023-03-16T08:00:48.275Z,15.83
2023-03-16T08:03:16.217Z,14.95
2023-03-16T08:05:44.753Z,15.15
2023-03-16T08:08:15.972Z,15.27
2023-03-16T08:10:44.240Z,15.17
2023-03-16T08:13:12.133Z,15.51
2023-03-16T08:15:40.204Z,15.47
2023-03-16T08:18:08.211Z,15.33
2023-03-16T08:20:36.135Z,15.59
2023-03-16T08:23:04.009Z,15.85
2023-03-16T08:25:33.268Z,16.13
2023-03-16T08:28:02.228Z,16.36
2023-03-16T08:30:31.023Z,15.87
2023-03-16T08:33:01.493Z,15.94
2023-03-16T08:35:29.609Z,16.95
2023-03-16T08:37:57.584Z,16.57
2023-03-16T08:40:25.414Z,16.84
2023-03-16T08:42:55.671Z,17.02
2023-03-16T08:45:24.307Z,16.42
2023-03-16T08:47:52.119Z,16.42
2023-03-16T08:50:20.848Z,16.28
2023-03-16T08:52:49.008Z,16.23
2023-03-16T08:55:16.895Z,16.47
2023-03-16T08:57:46.348Z,16.38
2023-03-16T09:00:17.951Z,16.25
2023-03-16T09:02:46.913Z,17.41
2023-03-16T09:05:18.235Z,17.05
2023-03-16T09:07:48.907Z,17.12
2023-03-16T09:10:18.939Z,16.38
2023-03-16T09:12:47.261Z,16.42
2023-03-16T09:15:16.607Z,16.27
2023-03-16T09:17:45.785Z,15.15
2023-03-16T09:20:22.355Z,15.82
2023-03-16T09:22:54.553Z,16.16
2023-03-16T09:25:22.486Z,15.87
2023-03-16T09:27:50.725Z,15.15
2023-03-16T09:30:20.072Z,14.23
2023-03-16T09:32:48.947Z,14.66
2023-03-16T09:35:17.012Z,14.19
2023-03-16T09:38:01.092Z,13.63
2023-03-16T09:40:33.608Z,14.08
2023-03-16T09:43:39.681Z,13.80
2023-03-16T09:46:15.439Z,13.47
2023-03-16T09:48:43.359Z,10.86
2023-03-16T09:51:21.732Z,10.95
2023-03-16T09:53:56.606Z,12.88
2023-03-16T09:57:19.344Z,13.44
2023-03-16T09:59:47.991Z,12.71
2023-03-16T10:02:52.129Z,13.59
2023-03-16T10:05:23.169Z,13.83
2023-03-16T10:11:29.304Z,13.67
2023-03-16T10:14:11.161Z,13.68
2023-03-16T10:16:46.711Z,13.86
2023-03-16T10:19:23.307Z,14.25
2023-03-16T10:21:55.514Z,12.97
2023-03-16T10:24:40.614Z,13.28
2023-03-16T10:27:20.387Z,12.93
2023-03-16T10:29:48.887Z,11.93
2023-03-16T10:32:19.828Z,11.51
2023-03-16T10:34:57.806Z,12.46
2023-03-16T10:37:28.291Z,12.21
2023-03-16T10:39:56.528Z,11.48
2023-03-16T10:42:27.146Z,11.20
2023-03-16T10:45:01.769Z,11.45
2023-03-16T10:47:33.833Z,11.09
2023-03-16T10:50:14.384Z,10.34
2023-03-16T10:52:48.111Z,10.88
2023-03-16T10:55:22.161Z,11.31
2023-03-16T10:57:53.581Z,11.46
2023-03-16T11:00:26.886Z,11.82
2023-03-16T11:02:56.789Z,12.01
2023-03-16T11:05:32.885Z,12.27
2023-03-16T11:08:09.409Z,12.13
2023-03-16T11:10:49.388Z,11.32
2023-03-16T11:13:22.704Z,11.93
2023-03-16T11:15:57.468Z,12.11
2023-03-16T11:18:32.365Z,11.72
2023-03-16T11:21:09.466Z,12.10
2023-03-16T11:23:48.399Z,12.23
2023-03-16T11:26:27.806Z,11.68
2023-03-16T11:29:03.674Z,11.70
2023-03-16T11:31:43.467Z,12.04
2023-03-16T11:34:17.865Z,12.07
2023-03-16T11:36:53.477Z,11.93
2023-03-16T11:39:34.558Z,12.09
2023-03-16T11:42:21.706Z,12.16
2023-03-16T11:44:57.457Z,12.33
2023-03-16T11:48:06.922Z,12.64
2023-03-16T11:50:51.660Z,12.91
2023-03-16T11:53:51.947Z,12.49
2023-03-16T11:56:32.840Z,12.64
2023-03-16T12:00:00.667Z,12.68
2023-03-16T12:02:54.185Z,13.43
2023-03-16T12:05:43.034Z,13.10
2023-03-16T12:08:38.477Z,12.78
2023-03-16T12:11:13.103Z,12.15
2023-03-16T12:13:59.002Z,12.56
2023-03-16T12:16:46.394Z,12.59
2023-03-16T12:19:24.908Z,12.38
2023-03-16T12:22:06.858Z,13.73
2023-03-16T12:33:01.875Z,12.66
2023-03-16T12:40:22.229Z,12.22
2023-03-16T12:43:05.448Z,12.34
2023-03-16T12:59:21.038Z,14.36
2023-03-16T13:01:53.495Z,14.37
2023-03-16T13:04:31.522Z,13.85
2023-03-16T13:07:06.366Z,13.82
2023-03-16T13:09:37.950Z,14.15
2023-03-16T13:12:06.668Z,14.07
2023-03-16T13:14:40.438Z,13.30
2023-03-16T13:17:25.172Z,13.25
2023-03-16T13:20:05.216Z,13.79
2023-03-16T13:22:44.528Z,13.32
2023-03-16T13:25:22.212Z,13.09
2023-03-16T13:27:55.553Z,13.05
2023-03-16T13:30:28.727Z,12.91
2023-03-16T13:33:01.383Z,13.59
2023-03-16T13:35:32.898Z,13.35
2023-03-16T13:38:06.692Z,13.21
2023-03-16T13:40:35.682Z,11.33
2023-03-16T13:43:03.557Z,11.81
2023-03-16T13:45:35.755Z,12.47
2023-03-16T13:48:04.127Z,13.27
2023-03-16T13:50:36.142Z,11.40
2023-03-16T13:53:14.417Z,11.85
2023-03-16T13:55:46.827Z,12.38
2023-03-16T13:58:27.595Z,12.44
2023-03-16T14:01:01.883Z,12.03
2023-03-16T14:03:36.052Z,12.18
2023-03-16T14:06:07.312Z,12.12
2023-03-16T14:08:35.767Z,11.87
2023-03-16T14:11:04.205Z,11.13
2023-03-16T14:13:38.154Z,10.29
2023-03-16T14:16:15.565Z,11.16
2023-03-16T14:18:46.505Z,11.49
2023-03-16T14:21:20.421Z,11.58
2023-03-16T14:23:53.005Z,10.61
2023-03-16T14:26:24.940Z,10.22
2023-03-16T14:28:58.730Z,10.32
2023-03-16T14:31:35.460Z,10.97
2023-03-16T14:34:08.694Z,11.14
2023-03-16T14:36:39.977Z,10.55
2023-03-16T14:39:13.010Z,10.99
2023-03-16T14:41:41.608Z,11.01
2023-03-16T14:44:21.445Z,10.65
2023-03-16T14:46:50.745Z,10.18
2023-03-16T14:49:24.288Z,10.11
2023-03-16T14:52:10.665Z,9.87
2023-03-16T14:54:46.746Z,9.43
2023-03-16T14:57:18.999Z,9.56
2023-03-16T14:59:46.954Z,9.46
2023-03-16T15:02:20.249Z,9.94
2023-03-16T15:04:50.244Z,9.68
2023-03-16T15:07:26.040Z,9.61
2023-03-16T15:10:02.145Z,10.13
2023-03-16T15:12:30.046Z,9.50
2023-03-16T15:15:16.352Z,9.39
2023-03-16T15:17:45.645Z,9.79
2023-03-16T15:20:15.655Z,9.86
2023-03-16T15:22:46.747Z,9.07
2023-03-16T15:25:29.712Z,9.33
2023-03-16T15:27:57.648Z,9.48
2023-03-16T15:30:28.715Z,9.28
2023-03-16T15:32:57.052Z,9.77
2023-03-16T15:35:25.054Z,10.18
2023-03-16T15:37:54.387Z,9.99
2023-03-16T15:40:25.282Z,10.32
2023-03-16T15:42:54.089Z,9.73
2023-03-16T15:45:23.938Z,9.71
2023-03-16T15:47:54.497Z,9.61
2023-03-16T15:50:25.732Z,9.78
2023-03-16T15:52:59.721Z,9.32
2023-03-16T15:55:35.275Z,9.39
2023-03-16T15:58:03.894Z,9.20
2023-03-16T16:00:35.066Z,9.10
2023-03-16T16:03:05.168Z,8.55
2023-03-16T16:05:33.971Z,8.55
2023-03-16T16:08:03.190Z,8.17
2023-03-16T16:10:32.277Z,7.69
2023-03-16T16:13:01.443Z,7.66
2023-03-16T16:15:33.853Z,7.64
2023-03-16T16:18:20.389Z,7.06
2023-03-16T16:20:49.315Z,6.76
2023-03-16T16:23:19.945Z,6.90
2023-03-16T16:25:49.744Z,6.89
2023-03-16T16:28:21.870Z,6.45
2023-03-16T16:30:50.587Z,6.78
2023-03-16T16:33:24.566Z,6.52
2023-03-16T16:35:53.033Z,6.57
2023-03-16T16:38:23.098Z,6.68
2023-03-16T16:40:52.717Z,6.29
2023-03-16T16:43:32.157Z,6.55
2023-03-16T16:46:02.866Z,6.53
2023-03-16T16:48:33.517Z,6.54
2023-03-16T16:51:02.331Z,6.61
2023-03-16T16:53:31.859Z,6.78
2023-03-16T16:56:00.201Z,6.59
2023-03-16T16:58:28.140Z,6.64
2023-03-16T17:00:58.994Z,6.53
2023-03-16T17:03:29.718Z,6.46
2023-03-16T17:05:59.912Z,6.11
2023-03-16T17:08:28.544Z,6.55
2023-03-16T17:10:58.481Z,6.50
2023-03-16T17:13:30.899Z,6.45
2023-03-16T17:16:00.211Z,6.31
2023-03-16T17:18:28.733Z,6.29
2023-03-16T17:20:56.965Z,6.79
2023-03-16T17:23:31.203Z,7.07
2023-03-16T17:26:03.759Z,6.16
2023-03-16T17:28:39.759Z,6.28
2023-03-16T17:31:08.026Z,6.18
2023-03-16T17:33:36.063Z,6.77
2023-03-16T17:36:04.549Z,6.00
2023-03-16T17:38:33.272Z,6.32
2023-03-16T17:41:02.965Z,6.08
2023-03-16T17:43:32.878Z,6.19
2023-03-16T17:46:04.393Z,6.71
2023-03-16T17:48:33.583Z,6.56
2023-03-16T17:51:01.954Z,6.27
2023-03-16T17:53:29.854Z,6.43
2023-03-16T17:55:57.888Z,6.27
2023-03-16T17:58:31.519Z,5.92
2023-03-16T18:01:00.071Z,6.26
2023-03-16T18:03:30.623Z,6.98
2023-03-16T18:06:00.764Z,6.95
2023-03-16T18:08:33.346Z,6.59
2023-03-16T18:11:05.373Z,6.92
2023-03-16T18:13:38.323Z,7.41
2023-03-16T18:16:08.151Z,7.38
2023-03-16T18:18:39.640Z,7.64
2023-03-16T18:21:08.799Z,8.02
2023-03-16T18:23:37.331Z,7.84
2023-03-16T18:26:06.949Z,8.70
2023-03-16T18:28:36.505Z,8.37
2023-03-16T18:31:07.784Z,7.86
2023-03-16T18:33:39.317Z,7.35
2023-03-16T18:36:13.984Z,6.92
2023-03-16T18:38:45.418Z,6.96
2023-03-16T18:41:17.849Z,6.81
2023-03-16T18:43:48.019Z,6.95
2023-03-16T18:46:26.024Z,6.97
2023-03-16T18:48:57.089Z,7.09
2023-03-16T18:51:25.564Z,7.36
2023-03-16T18:53:54.979Z,7.18
2023-03-16T18:56:25.370Z,7.42
2023-03-16T18:58:56.226Z,7.45
2023-03-16T19:01:26.702Z,7.98
2023-03-16T19:03:56.506Z,8.18
2023-03-16T19:06:29.631Z,7.76
2023-03-16T19:09:03.830Z,7.81
2023-03-16T19:11:32.220Z,7.94
2023-03-16T19:14:01.526Z,7.72
2023-03-16T19:16:29.486Z,7.39
2023-03-16T19:18:57.365Z,7.73
2023-03-16T19:21:25.958Z,7.57
2023-03-16T19:23:58.334Z,7.54
2023-03-16T19:26:26.614Z,7.79
2023-03-16T19:28:58.058Z,7.97
2023-03-16T19:31:29.587Z,7.51
2023-03-16T19:33:58.502Z,8.14
2023-03-16T19:36:30.351Z,8.44
2023-03-16T19:38:59.557Z,8.39
2023-03-16T19:41:32.317Z,8.61
2023-03-16T19:44:08.418Z,9.04
2023-03-16T19:46:38.197Z,8.95
2023-03-16T19:49:10.067Z,8.95
2023-03-16T19:51:38.054Z,9.35
2023-03-16T19:54:06.240Z,9.28
2023-03-16T19:56:34.594Z,9.10
2023-03-16T19:59:02.655Z,9.73
2023-03-16T20:01:33.557Z,9.20
2023-03-16T20:04:04.407Z,9.49
2023-03-16T20:06:33.388Z,9.65
2023-03-16T20:09:01.509Z,9.42
2023-03-16T20:11:32.529Z,9.61
2023-03-16T20:14:08.312Z,9.57
2023-03-16T20:16:39.339Z,9.75
2023-03-16T20:19:15.435Z,9.52
2023-03-16T20:21:43.658Z,9.56
2023-03-16T20:24:16.437Z,9.72
2023-03-16T20:26:47.561Z,9.38
2023-03-16T20:29:21.032Z,9.60
2023-03-16T20:31:49.158Z,9.58
2023-03-16T20:34:29.290Z,9.79
2023-03-16T20:36:57.847Z,9.69
2023-03-16T20:39:26.133Z,9.38
2023-03-16T20:41:54.528Z,9.88
2023-03-16T20:44:25.677Z,9.97
2023-03-16T20:46:53.867Z,9.94
2023-03-16T20:49:32.744Z,9.86
2023-03-16T20:52:04.048Z,10.37
2023-03-16T20:54:32.154Z,10.43
2023-03-16T20:57:00.301Z,10.56
2023-03-16T20:59:30.149Z,10.05
2023-03-16T21:01:58.055Z,10.26
2023-03-16T21:04:29.783Z,10.64
2023-03-16T21:06:59.437Z,11.06
2023-03-16T21:09:27.795Z,10.87
2023-03-16T21:11:55.879Z,11.19
2023-03-16T21:14:25.759Z,10.78
2023-03-16T21:16:55.042Z,11.47
2023-03-16T21:19:24.900Z,11.48
2023-03-16T21:21:53.158Z,11.65
2023-03-16T21:24:22.567Z,11.53
2023-03-16T21:26:51.856Z,11.42
2023-03-16T21:29:22.249Z,11.53
2023-03-16T21:31:51.849Z,11.95
2023-03-16T21:34:25.992Z,11.99
2023-03-16T21:36:54.064Z,11.81
2023-03-16T21:39:25.250Z,11.78
2023-03-16T21:41:54.075Z,12.43
2023-03-16T21:44:22.730Z,12.14
2023-03-16T21:46:50.890Z,12.45
2023-03-16T21:49:19.709Z,12.48
2023-03-16T21:51:47.674Z,12.21
2023-03-16T21:54:17.060Z,11.87
2023-03-16T21:56:47.869Z,12.02
2023-03-16T21:59:16.037Z,12.29
2023-03-16T22:02:00.323Z,12.15
2023-03-16T22:04:29.047Z,12.52
2023-03-16T22:06:56.909Z,12.37
2023-03-16T22:09:29.825Z,12.57
2023-03-16T22:11:59.231Z,12.27
2023-03-16T22:14:27.170Z,12.33
2023-03-16T22:16:55.834Z,12.20
2023-03-16T22:19:24.878Z,12.37
2023-03-16T22:21:53.184Z,12.56
2023-03-16T22:24:24.779Z,12.36
2023-03-16T22:26:53.741Z,12.38
2023-03-16T22:29:26.489Z,12.27
2023-03-16T22:31:59.453Z,12.41
2023-03-16T22:34:32.144Z,12.34
2023-03-16T22:37:02.717Z,12.56
2023-03-16T22:39:36.134Z,12.54
2023-03-16T22:42:04.613Z,12.85
2023-03-16T22:44:33.875Z,12.99
2023-03-16T22:47:01.779Z,12.49
2023-03-16T22:49:29.787Z,12.29
2023-03-16T22:51:58.923Z,12.37
2023-03-16T22:54:30.164Z,12.23
2023-03-16T22:56:58.194Z,12.24
2023-03-16T22:59:28.371Z,12.20
2023-03-16T23:01:58.595Z,12.25
2023-03-16T23:04:30.301Z,12.36
2023-03-16T23:06:58.569Z,11.71
2023-03-16T23:09:26.912Z,11.76
2023-03-16T23:11:57.142Z,11.28
2023-03-16T23:14:28.331Z,11.84
2023-03-16T23:16:57.856Z,11.44
2023-03-16T23:19:29.743Z,11.27
2023-03-16T23:22:00.777Z,11.22
2023-03-16T23:24:29.012Z,11.57
2023-03-16T23:26:57.044Z,10.89
2023-03-16T23:29:27.154Z,11.03
2023-03-16T23:31:55.190Z,10.71
2023-03-16T23:34:26.302Z,10.73
2023-03-16T23:36:54.343Z,11.02
2023-03-16T23:39:22.326Z,10.93
2023-03-16T23:41:51.717Z,10.89
2023-03-16T23:44:24.555Z,10.77
2023-03-16T23:46:52.939Z,10.61
2023-03-16T23:49:26.280Z,10.54
2023-03-16T23:51:56.830Z,11.13
2023-03-16T23:54:28.691Z,10.30
2023-03-16T23:56:57.224Z,10.65
2023-03-16T23:59:27.375Z,10.41
